Aérodrome :
LOGIN :

S'inscrire | Disclaimer

   EN    FR    IT 

 










Légende :    VFR   VFR Marginal   IFR   IFR Intensif   IFR Très Intensif
Visi : 
Plafond : 
>= 8 km
>= 3000ft
5 à 8 km
1000 à 3000 ft
1500m à 5 km
500 à 1000 ft
800 à 1500m
200 à 500 ft
< 800m
< 200 ft
Symboles :   Orages  Brouillard  Fortes neiges  Fortes précipitations  Vent > 20 kt
SIGMETs :   Divers  Orages  Givrage  Turbulence  Onde Orograph.  Cendres Volcan.






- Altitude de l'aérodrome : 13 ft
- Code IATA : SNR


LFRZ - St-Nazaire

DERNIER METAR :
  • 021300Z AUTO 28005KT 260V320 CAVOK 08/05 Q1020 NOSIG

METARs EXPIRÉS :
  • 021230Z AUTO 29006KT CAVOK 08/05 Q1020 NOSIG
  • 021200Z AUTO 29005KT CAVOK 08/05 Q1021 NOSIG
  • 021130Z AUTO 29004KT 260V320 CAVOK 08/05 Q1021 NOSIG
  • 021100Z AUTO 30004KT 260V330 CAVOK 07/05 Q1022 NOSIG
  • 021030Z AUTO 33004KT CAVOK 07/04 Q1022 NOSIG

TAF TAF LFRZ
Valide du 02 à 12h jusqu'au 03 à 12h UTC


021100Z 0212/0312 30005KT CAVOK
FM021700 24004KT 9999 BKN020
TEMPO 0218/0301 4000 -RA BKN014
PROB40
TEMPO 0301/0304 3000 BR
BECMG 0304/0306 4500 -RA
FM030800 24015G25KT 4500 -RA BKN040
TEMPO 0309/0312 24020G35KT 2500 RA BKN012 BKN030



MET'MAP, la Météo Aéronautique d'un coup d'oeil ! - Copyright ORBIFLY Décembre 2007 - Disclaimer

ORBIFLY MET'MAP TEAM :

Programmation & Développement : Alexandra Zaïnal
Sur une idée originale de : Baudouin d'Aumeries
Assistance à la programmation : Marc-Olivier Méhu
Soutien technique & logistique : Manuel Goepfert

Contact : metmap@orbifly.com




SOURCES & CREDITS :

   NOAA